sensor_id;sensor_type;location;lat;lon;timestamp;temperature;humidity
25914;DHT22;13718;50.922;5.346;2023-05-16T00:01:41;11.80;99.90
25914;DHT22;13718;50.922;5.346;2023-05-16T00:04:07;11.80;99.90
25914;DHT22;13718;50.922;5.346;2023-05-16T00:06:32;11.80;99.90
25914;DHT22;13718;50.922;5.346;2023-05-16T00:08:59;11.80;99.90
25914;DHT22;13718;50.922;5.346;2023-05-16T00:11:24;11.80;99.90
25914;DHT22;13718;50.922;5.346;2023-05-16T00:13:50;11.70;99.90
25914;DHT22;13718;50.922;5.346;2023-05-16T00:16:16;11.60;99.90
25914;DHT22;13718;50.922;5.346;2023-05-16T00:18:42;11.60;99.90
25914;DHT22;13718;50.922;5.346;2023-05-16T00:21:10;11.60;99.90
25914;DHT22;13718;50.922;5.346;2023-05-16T00:23:36;11.60;99.90
25914;DHT22;13718;50.922;5.346;2023-05-16T00:26:01;11.60;99.90
25914;DHT22;13718;50.922;5.346;2023-05-16T00:28:27;11.60;99.90
25914;DHT22;13718;50.922;5.346;2023-05-16T00:30:53;11.60;99.90
25914;DHT22;13718;50.922;5.346;2023-05-16T00:33:18;11.50;99.90
25914;DHT22;13718;50.922;5.346;2023-05-16T00:35:44;11.50;99.90
25914;DHT22;13718;50.922;5.346;2023-05-16T00:38:10;11.50;99.90
25914;DHT22;13718;50.922;5.346;2023-05-16T00:40:35;11.50;99.90
25914;DHT22;13718;50.922;5.346;2023-05-16T00:43:01;11.50;99.90
25914;DHT22;13718;50.922;5.346;2023-05-16T00:45:27;11.50;99.90
25914;DHT22;13718;50.922;5.346;2023-05-16T00:47:53;11.50;99.90
25914;DHT22;13718;50.922;5.346;2023-05-16T00:50:19;11.40;99.90
25914;DHT22;13718;50.922;5.346;2023-05-16T00:52:45;11.40;99.90
25914;DHT22;13718;50.922;5.346;2023-05-16T00:55:10;11.30;99.90
25914;DHT22;13718;50.922;5.346;2023-05-16T00:57:37;11.40;99.90
25914;DHT22;13718;50.922;5.346;2023-05-16T01:00:07;11.40;99.90
25914;DHT22;13718;50.922;5.346;2023-05-16T01:02:36;11.40;99.90
25914;DHT22;13718;50.922;5.346;2023-05-16T01:05:03;11.40;99.90
25914;DHT22;13718;50.922;5.346;2023-05-16T01:07:33;11.30;99.90
25914;DHT22;13718;50.922;5.346;2023-05-16T01:10:00;11.40;99.90
25914;DHT22;13718;50.922;5.346;2023-05-16T01:15:48;11.30;99.90
25914;DHT22;13718;50.922;5.346;2023-05-16T01:18:21;11.30;99.90
25914;DHT22;13718;50.922;5.346;2023-05-16T01:20:59;11.30;99.90
25914;DHT22;13718;50.922;5.346;2023-05-16T01:23:51;11.30;99.90
25914;DHT22;13718;50.922;5.346;2023-05-16T01:26:21;11.20;99.90
25914;DHT22;13718;50.922;5.346;2023-05-16T01:28:48;11.20;99.90
25914;DHT22;13718;50.922;5.346;2023-05-16T01:31:14;11.10;99.90
25914;DHT22;13718;50.922;5.346;2023-05-16T01:33:41;11.10;99.90
25914;DHT22;13718;50.922;5.346;2023-05-16T01:39:19;11.00;99.90
25914;DHT22;13718;50.922;5.346;2023-05-16T01:46:57;10.80;99.90
25914;DHT22;13718;50.922;5.346;2023-05-16T01:49:50;10.80;99.90
25914;DHT22;13718;50.922;5.346;2023-05-16T01:52:27;10.80;99.90
25914;DHT22;13718;50.922;5.346;2023-05-16T01:54:57;10.80;99.90
25914;DHT22;13718;50.922;5.346;2023-05-16T01:57:30;10.80;99.90
25914;DHT22;13718;50.922;5.346;2023-05-16T01:59:58;10.70;99.90
25914;DHT22;13718;50.922;5.346;2023-05-16T02:02:30;10.70;99.90
25914;DHT22;13718;50.922;5.346;2023-05-16T02:04:58;10.70;99.90
25914;DHT22;13718;50.922;5.346;2023-05-16T02:07:33;10.60;99.90
25914;DHT22;13718;50.922;5.346;2023-05-16T02:09:59;10.60;99.90
25914;DHT22;13718;50.922;5.346;2023-05-16T02:12:25;10.60;99.90
25914;DHT22;13718;50.922;5.346;2023-05-16T02:14:51;10.70;99.90
25914;DHT22;13718;50.922;5.346;2023-05-16T02:17:24;10.70;99.90
25914;DHT22;13718;50.922;5.346;2023-05-16T02:19:52;10.70;99.90
25914;DHT22;13718;50.922;5.346;2023-05-16T02:22:17;10.60;99.90
25914;DHT22;13718;50.922;5.346;2023-05-16T02:24:43;10.60;99.90
25914;DHT22;13718;50.922;5.346;2023-05-16T02:27:09;10.50;99.90
25914;DHT22;13718;50.922;5.346;2023-05-16T02:29:35;10.40;99.90
25914;DHT22;13718;50.922;5.346;2023-05-16T02:32:02;10.40;99.90
25914;DHT22;13718;50.922;5.346;2023-05-16T02:34:29;10.30;99.90
25914;DHT22;13718;50.922;5.346;2023-05-16T02:36:54;10.30;99.90
25914;DHT22;13718;50.922;5.346;2023-05-16T02:39:20;10.30;99.90
25914;DHT22;13718;50.922;5.346;2023-05-16T02:41:46;10.30;99.90
25914;DHT22;13718;50.922;5.346;2023-05-16T02:44:12;10.20;99.90
25914;DHT22;13718;50.922;5.346;2023-05-16T02:46:37;10.20;99.90
25914;DHT22;13718;50.922;5.346;2023-05-16T02:49:03;10.20;99.90
25914;DHT22;13718;50.922;5.346;2023-05-16T02:51:29;10.10;99.90
25914;DHT22;13718;50.922;5.346;2023-05-16T02:53:54;10.00;99.90
25914;DHT22;13718;50.922;5.346;2023-05-16T02:56:27;9.90;99.90
25914;DHT22;13718;50.922;5.346;2023-05-16T02:58:53;9.80;99.90
25914;DHT22;13718;50.922;5.346;2023-05-16T03:01:19;9.80;99.90
25914;DHT22;13718;50.922;5.346;2023-05-16T03:03:45;9.70;99.90
25914;DHT22;13718;50.922;5.346;2023-05-16T03:06:11;9.60;99.90
25914;DHT22;13718;50.922;5.346;2023-05-16T03:08:36;9.50;99.90
25914;DHT22;13718;50.922;5.346;2023-05-16T03:11:02;9.50;99.90
25914;DHT22;13718;50.922;5.346;2023-05-16T03:13:28;9.50;99.90
25914;DHT22;13718;50.922;5.346;2023-05-16T03:15:54;9.50;99.90
25914;DHT22;13718;50.922;5.346;2023-05-16T03:18:20;9.30;99.90
25914;DHT22;13718;50.922;5.346;2023-05-16T03:20:46;9.20;99.90
25914;DHT22;13718;50.922;5.346;2023-05-16T03:23:12;9.20;99.90
25914;DHT22;13718;50.922;5.346;2023-05-16T03:25:37;9.10;99.90
25914;DHT22;13718;50.922;5.346;2023-05-16T03:28:06;9.00;99.90
25914;DHT22;13718;50.922;5.346;2023-05-16T03:30:33;9.00;99.90
25914;DHT22;13718;50.922;5.346;2023-05-16T03:32:58;9.00;99.90
25914;DHT22;13718;50.922;5.346;2023-05-16T03:35:24;9.00;99.90
25914;DHT22;13718;50.922;5.346;2023-05-16T03:37:50;9.00;99.90
25914;DHT22;13718;50.922;5.346;2023-05-16T03:40:15;9.00;99.90
25914;DHT22;13718;50.922;5.346;2023-05-16T03:42:42;9.00;99.90
25914;DHT22;13718;50.922;5.346;2023-05-16T03:45:08;8.90;99.90
25914;DHT22;13718;50.922;5.346;2023-05-16T03:47:33;8.90;99.90
25914;DHT22;13718;50.922;5.346;2023-05-16T03:49:59;8.90;99.90
25914;DHT22;13718;50.922;5.346;2023-05-16T03:52:25;8.90;99.90
25914;DHT22;13718;50.922;5.346;2023-05-16T03:54:51;9.00;99.90
25914;DHT22;13718;50.922;5.346;2023-05-16T03:57:16;9.00;99.90
25914;DHT22;13718;50.922;5.346;2023-05-16T03:59:42;9.00;99.90
25914;DHT22;13718;50.922;5.346;2023-05-16T04:02:08;9.00;99.90
25914;DHT22;13718;50.922;5.346;2023-05-16T04:04:34;9.10;99.90
25914;DHT22;13718;50.922;5.346;2023-05-16T04:07:01;9.10;99.90
25914;DHT22;13718;50.922;5.346;2023-05-16T04:09:26;9.20;99.90
25914;DHT22;13718;50.922;5.346;2023-05-16T04:11:52;9.20;99.90
25914;DHT22;13718;50.922;5.346;2023-05-16T04:14:20;9.20;99.90
25914;DHT22;13718;50.922;5.346;2023-05-16T04:16:46;9.20;99.90
25914;DHT22;13718;50.922;5.346;2023-05-16T04:19:11;9.20;99.90
25914;DHT22;13718;50.922;5.346;2023-05-16T04:21:37;9.30;99.90
25914;DHT22;13718;50.922;5.346;2023-05-16T04:24:03;9.30;99.90
25914;DHT22;13718;50.922;5.346;2023-05-16T04:26:29;9.40;99.90
25914;DHT22;13718;50.922;5.346;2023-05-16T04:28:54;9.50;99.90
25914;DHT22;13718;50.922;5.346;2023-05-16T04:31:20;9.50;99.90
25914;DHT22;13718;50.922;5.346;2023-05-16T04:33:47;9.50;99.90
25914;DHT22;13718;50.922;5.346;2023-05-16T04:36:13;9.50;99.90
25914;DHT22;13718;50.922;5.346;2023-05-16T04:38:39;9.50;99.90
25914;DHT22;13718;50.922;5.346;2023-05-16T04:41:04;9.40;99.90
25914;DHT22;13718;50.922;5.346;2023-05-16T04:43:30;9.50;99.90
25914;DHT22;13718;50.922;5.346;2023-05-16T04:45:56;9.40;99.90
25914;DHT22;13718;50.922;5.346;2023-05-16T04:48:23;9.40;99.90
25914;DHT22;13718;50.922;5.346;2023-05-16T04:50:49;9.50;99.90
25914;DHT22;13718;50.922;5.346;2023-05-16T04:53:14;9.50;99.90
25914;DHT22;13718;50.922;5.346;2023-05-16T04:55:40;9.50;99.90
25914;DHT22;13718;50.922;5.346;2023-05-16T04:58:06;9.60;99.90
25914;DHT22;13718;50.922;5.346;2023-05-16T05:00:32;9.60;99.90
25914;DHT22;13718;50.922;5.346;2023-05-16T05:02:58;9.60;99.90
25914;DHT22;13718;50.922;5.346;2023-05-16T05:05:23;9.70;99.90
25914;DHT22;13718;50.922;5.346;2023-05-16T05:07:49;9.80;99.90
25914;DHT22;13718;50.922;5.346;2023-05-16T05:10:15;10.00;99.90
25914;DHT22;13718;50.922;5.346;2023-05-16T05:12:40;10.30;99.90
25914;DHT22;13718;50.922;5.346;2023-05-16T05:15:06;10.40;99.90
25914;DHT22;13718;50.922;5.346;2023-05-16T05:17:32;10.40;99.90
25914;DHT22;13718;50.922;5.346;2023-05-16T05:19:58;10.50;99.90
25914;DHT22;13718;50.922;5.346;2023-05-16T05:22:23;10.80;99.90
25914;DHT22;13718;50.922;5.346;2023-05-16T05:24:49;11.80;99.90
25914;DHT22;13718;50.922;5.346;2023-05-16T05:27:15;13.10;99.90
25914;DHT22;13718;50.922;5.346;2023-05-16T05:29:40;13.80;99.90
25914;DHT22;13718;50.922;5.346;2023-05-16T05:32:06;13.90;99.90
25914;DHT22;13718;50.922;5.346;2023-05-16T05:34:32;14.60;99.90
25914;DHT22;13718;50.922;5.346;2023-05-16T05:36:58;15.50;99.90
25914;DHT22;13718;50.922;5.346;2023-05-16T05:39:24;15.50;99.90
25914;DHT22;13718;50.922;5.346;2023-05-16T05:41:50;15.20;99.90
25914;DHT22;13718;50.922;5.346;2023-05-16T05:44:16;14.80;99.90
25914;DHT22;13718;50.922;5.346;2023-05-16T05:46:41;15.00;99.90
25914;DHT22;13718;50.922;5.346;2023-05-16T05:49:07;16.00;99.90
25914;DHT22;13718;50.922;5.346;2023-05-16T05:51:33;16.70;99.90
25914;DHT22;13718;50.922;5.346;2023-05-16T05:54:01;16.80;99.90
25914;DHT22;13718;50.922;5.346;2023-05-16T05:56:26;16.40;99.90
25914;DHT22;13718;50.922;5.346;2023-05-16T05:58:52;15.90;99.90
25914;DHT22;13718;50.922;5.346;2023-05-16T06:01:18;16.70;99.90
25914;DHT22;13718;50.922;5.346;2023-05-16T06:03:46;18.10;99.90
25914;DHT22;13718;50.922;5.346;2023-05-16T06:06:11;19.60;99.90
25914;DHT22;13718;50.922;5.346;2023-05-16T06:08:39;20.70;97.60
25914;DHT22;13718;50.922;5.346;2023-05-16T06:11:05;21.50;95.50
25914;DHT22;13718;50.922;5.346;2023-05-16T06:13:31;22.50;93.00
25914;DHT22;13718;50.922;5.346;2023-05-16T06:15:56;22.90;90.60
25914;DHT22;13718;50.922;5.346;2023-05-16T06:18:22;23.30;87.20
25914;DHT22;13718;50.922;5.346;2023-05-16T06:20:47;23.70;84.90
25914;DHT22;13718;50.922;5.346;2023-05-16T06:23:13;24.10;81.40
25914;DHT22;13718;50.922;5.346;2023-05-16T06:25:39;24.30;78.80
25914;DHT22;13718;50.922;5.346;2023-05-16T06:28:04;24.70;77.80
25914;DHT22;13718;50.922;5.346;2023-05-16T06:30:30;25.10;76.00
25914;DHT22;13718;50.922;5.346;2023-05-16T06:32:55;25.40;73.10
25914;DHT22;13718;50.922;5.346;2023-05-16T06:35:21;25.50;71.80
25914;DHT22;13718;50.922;5.346;2023-05-16T06:37:47;25.70;70.80
25914;DHT22;13718;50.922;5.346;2023-05-16T06:40:13;26.10;70.00
25914;DHT22;13718;50.922;5.346;2023-05-16T06:42:38;26.50;68.00
25914;DHT22;13718;50.922;5.346;2023-05-16T06:45:05;26.50;66.70
25914;DHT22;13718;50.922;5.346;2023-05-16T06:47:31;26.60;65.00
25914;DHT22;13718;50.922;5.346;2023-05-16T06:49:56;26.80;63.60
25914;DHT22;13718;50.922;5.346;2023-05-16T06:52:22;26.70;63.60
25914;DHT22;13718;50.922;5.346;2023-05-16T06:54:48;26.40;64.00
25914;DHT22;13718;50.922;5.346;2023-05-16T06:57:13;25.10;64.30
25914;DHT22;13718;50.922;5.346;2023-05-16T06:59:39;25.10;64.00
25914;DHT22;13718;50.922;5.346;2023-05-16T07:02:05;25.70;63.90
25914;DHT22;13718;50.922;5.346;2023-05-16T07:04:31;25.10;61.80
25914;DHT22;13718;50.922;5.346;2023-05-16T07:06:58;25.40;62.00
25914;DHT22;13718;50.922;5.346;2023-05-16T07:09:24;25.50;60.10
25914;DHT22;13718;50.922;5.346;2023-05-16T07:11:49;25.50;59.80
25914;DHT22;13718;50.922;5.346;2023-05-16T07:14:15;25.70;59.50
25914;DHT22;13718;50.922;5.346;2023-05-16T07:16:40;25.00;61.40
25914;DHT22;13718;50.922;5.346;2023-05-16T07:19:06;24.90;60.00
25914;DHT22;13718;50.922;5.346;2023-05-16T07:21:32;24.20;60.90
25914;DHT22;13718;50.922;5.346;2023-05-16T07:23:58;23.00;62.60
25914;DHT22;13718;50.922;5.346;2023-05-16T07:26:23;22.50;65.00
25914;DHT22;13718;50.922;5.346;2023-05-16T07:28:49;22.80;63.50
25914;DHT22;13718;50.922;5.346;2023-05-16T07:31:15;23.60;61.90
25914;DHT22;13718;50.922;5.346;2023-05-16T07:33:42;23.60;60.30
25914;DHT22;13718;50.922;5.346;2023-05-16T07:36:09;23.50;61.60
25914;DHT22;13718;50.922;5.346;2023-05-16T07:38:35;22.30;62.10
25914;DHT22;13718;50.922;5.346;2023-05-16T07:41:00;21.20;64.80
25914;DHT22;13718;50.922;5.346;2023-05-16T07:43:26;20.50;67.70
25914;DHT22;13718;50.922;5.346;2023-05-16T07:45:52;20.50;68.80
25914;DHT22;13718;50.922;5.346;2023-05-16T07:48:17;20.10;69.80
25914;DHT22;13718;50.922;5.346;2023-05-16T07:50:43;19.80;70.00
25914;DHT22;13718;50.922;5.346;2023-05-16T07:53:08;19.50;70.40
25914;DHT22;13718;50.922;5.346;2023-05-16T07:55:34;20.00;69.40
25914;DHT22;13718;50.922;5.346;2023-05-16T07:58:00;19.40;71.00
25914;DHT22;13718;50.922;5.346;2023-05-16T08:00:26;19.30;71.00
25914;DHT22;13718;50.922;5.346;2023-05-16T08:02:51;20.40;70.70
25914;DHT22;13718;50.922;5.346;2023-05-16T08:05:17;22.00;67.30
25914;DHT22;13718;50.922;5.346;2023-05-16T08:07:43;22.90;65.90
25914;DHT22;13718;50.922;5.346;2023-05-16T08:10:09;22.50;65.90
25914;DHT22;13718;50.922;5.346;2023-05-16T08:12:35;21.70;66.40
25914;DHT22;13718;50.922;5.346;2023-05-16T08:15:01;20.60;69.50
25914;DHT22;13718;50.922;5.346;2023-05-16T08:17:27;19.40;71.00
25914;DHT22;13718;50.922;5.346;2023-05-16T08:19:52;19.60;72.20
25914;DHT22;13718;50.922;5.346;2023-05-16T08:22:18;20.80;70.50
25914;DHT22;13718;50.922;5.346;2023-05-16T08:24:44;22.30;65.20
25914;DHT22;13718;50.922;5.346;2023-05-16T08:27:09;23.10;64.70
25914;DHT22;13718;50.922;5.346;2023-05-16T08:29:36;23.70;63.00
25914;DHT22;13718;50.922;5.346;2023-05-16T08:32:02;23.30;60.50
25914;DHT22;13718;50.922;5.346;2023-05-16T08:34:30;22.00;63.00
25914;DHT22;13718;50.922;5.346;2023-05-16T08:36:56;20.90;65.90
25914;DHT22;13718;50.922;5.346;2023-05-16T08:39:22;20.40;67.90
25914;DHT22;13718;50.922;5.346;2023-05-16T08:41:47;21.30;65.60
25914;DHT22;13718;50.922;5.346;2023-05-16T08:44:13;22.60;61.60
25914;DHT22;13718;50.922;5.346;2023-05-16T08:46:50;24.40;60.40
25914;DHT22;13718;50.922;5.346;2023-05-16T08:49:17;25.90;57.80
25914;DHT22;13718;50.922;5.346;2023-05-16T08:51:44;26.70;54.60
25914;DHT22;13718;50.922;5.346;2023-05-16T08:54:12;25.90;54.70
25914;DHT22;13718;50.922;5.346;2023-05-16T08:56:40;24.00;57.10
25914;DHT22;13718;50.922;5.346;2023-05-16T08:59:06;23.10;60.30
25914;DHT22;13718;50.922;5.346;2023-05-16T09:01:32;23.90;59.00
25914;DHT22;13718;50.922;5.346;2023-05-16T09:03:59;25.10;55.80
25914;DHT22;13718;50.922;5.346;2023-05-16T09:06:25;25.30;55.30
25914;DHT22;13718;50.922;5.346;2023-05-16T09:08:52;24.70;55.60
25914;DHT22;13718;50.922;5.346;2023-05-16T09:11:18;25.10;55.80
25914;DHT22;13718;50.922;5.346;2023-05-16T09:13:44;24.70;54.50
25914;DHT22;13718;50.922;5.346;2023-05-16T09:16:17;23.00;56.90
25914;DHT22;13718;50.922;5.346;2023-05-16T09:18:53;22.70;59.70
25914;DHT22;13718;50.922;5.346;2023-05-16T09:21:20;24.00;57.80
25914;DHT22;13718;50.922;5.346;2023-05-16T09:23:48;24.10;56.40
25914;DHT22;13718;50.922;5.346;2023-05-16T09:26:14;23.90;55.90
25914;DHT22;13718;50.922;5.346;2023-05-16T09:28:40;24.90;56.10
25914;DHT22;13718;50.922;5.346;2023-05-16T09:31:24;24.80;54.20
25914;DHT22;13718;50.922;5.346;2023-05-16T09:33:51;23.20;56.20
25914;DHT22;13718;50.922;5.346;2023-05-16T09:36:17;22.20;58.70
25914;DHT22;13718;50.922;5.346;2023-05-16T09:38:43;21.50;61.80
25914;DHT22;13718;50.922;5.346;2023-05-16T09:41:10;20.50;61.10
25914;DHT22;13718;50.922;5.346;2023-05-16T09:43:38;19.80;62.80
25914;DHT22;13718;50.922;5.346;2023-05-16T09:46:04;19.40;64.40
25914;DHT22;13718;50.922;5.346;2023-05-16T09:48:31;19.10;65.90
25914;DHT22;13718;50.922;5.346;2023-05-16T09:50:57;19.00;66.50
25914;DHT22;13718;50.922;5.346;2023-05-16T09:53:32;19.10;67.50
25914;DHT22;13718;50.922;5.346;2023-05-16T09:56:02;19.00;67.30
25914;DHT22;13718;50.922;5.346;2023-05-16T09:58:30;19.10;67.50
25914;DHT22;13718;50.922;5.346;2023-05-16T10:00:57;18.70;67.30
25914;DHT22;13718;50.922;5.346;2023-05-16T10:03:24;18.40;69.30
25914;DHT22;13718;50.922;5.346;2023-05-16T10:05:51;18.20;69.90
25914;DHT22;13718;50.922;5.346;2023-05-16T10:08:23;18.20;70.20
25914;DHT22;13718;50.922;5.346;2023-05-16T10:10:51;18.50;70.00
25914;DHT22;13718;50.922;5.346;2023-05-16T10:13:27;18.70;70.30
25914;DHT22;13718;50.922;5.346;2023-05-16T10:15:56;19.00;69.50
25914;DHT22;13718;50.922;5.346;2023-05-16T10:18:27;18.70;69.40
25914;DHT22;13718;50.922;5.346;2023-05-16T10:20:54;18.60;69.50
25914;DHT22;13718;50.922;5.346;2023-05-16T10:23:24;18.60;69.60
25914;DHT22;13718;50.922;5.346;2023-05-16T10:25:50;18.40;69.40
25914;DHT22;13718;50.922;5.346;2023-05-16T10:28:17;18.40;70.10
25914;DHT22;13718;50.922;5.346;2023-05-16T10:30:46;18.00;70.80
25914;DHT22;13718;50.922;5.346;2023-05-16T10:33:16;17.90;72.80
25914;DHT22;13718;50.922;5.346;2023-05-16T10:35:43;17.40;72.80
25914;DHT22;13718;50.922;5.346;2023-05-16T10:38:10;17.40;74.40
25914;DHT22;13718;50.922;5.346;2023-05-16T10:40:38;17.50;74.40
25914;DHT22;13718;50.922;5.346;2023-05-16T10:43:05;17.50;74.30
25914;DHT22;13718;50.922;5.346;2023-05-16T10:45:32;17.60;74.90
25914;DHT22;13718;50.922;5.346;2023-05-16T10:48:02;17.70;74.90
25914;DHT22;13718;50.922;5.346;2023-05-16T10:50:40;17.60;74.50
25914;DHT22;13718;50.922;5.346;2023-05-16T10:53:15;17.60;75.40
25914;DHT22;13718;50.922;5.346;2023-05-16T11:01:18;18.00;74.10
25914;DHT22;13718;50.922;5.346;2023-05-16T11:11:45;17.80;73.50
25914;DHT22;13718;50.922;5.346;2023-05-16T11:14:23;17.50;74.10
25914;DHT22;13718;50.922;5.346;2023-05-16T11:17:27;17.20;73.10
25914;DHT22;13718;50.922;5.346;2023-05-16T11:19:56;17.00;74.20
25914;DHT22;13718;50.922;5.346;2023-05-16T11:22:27;17.10;71.70
25914;DHT22;13718;50.922;5.346;2023-05-16T11:24:55;17.00;72.40
25914;DHT22;13718;50.922;5.346;2023-05-16T11:27:29;17.10;73.00
25914;DHT22;13718;50.922;5.346;2023-05-16T11:30:15;17.00;73.20
25914;DHT22;13718;50.922;5.346;2023-05-16T11:32:46;17.00;72.40
25914;DHT22;13718;50.922;5.346;2023-05-16T11:35:15;17.00;72.70
25914;DHT22;13718;50.922;5.346;2023-05-16T11:37:42;17.20;72.60
25914;DHT22;13718;50.922;5.346;2023-05-16T11:40:09;17.30;71.00
25914;DHT22;13718;50.922;5.346;2023-05-16T11:42:40;17.40;71.70
25914;DHT22;13718;50.922;5.346;2023-05-16T11:45:08;17.70;71.40
25914;DHT22;13718;50.922;5.346;2023-05-16T11:47:38;18.20;70.30
25914;DHT22;13718;50.922;5.346;2023-05-16T11:50:14;18.40;70.00
25914;DHT22;13718;50.922;5.346;2023-05-16T11:52:48;18.50;70.30
25914;DHT22;13718;50.922;5.346;2023-05-16T11:55:15;18.40;68.90
25914;DHT22;13718;50.922;5.346;2023-05-16T11:57:43;18.20;68.30
25914;DHT22;13718;50.922;5.346;2023-05-16T12:00:19;18.30;67.90
25914;DHT22;13718;50.922;5.346;2023-05-16T12:02:46;18.50;68.40
25914;DHT22;13718;50.922;5.346;2023-05-16T12:05:13;18.70;68.80
25914;DHT22;13718;50.922;5.346;2023-05-16T12:07:39;18.90;67.20
25914;DHT22;13718;50.922;5.346;2023-05-16T12:10:07;19.00;67.70
25914;DHT22;13718;50.922;5.346;2023-05-16T12:12:33;18.80;65.00
25914;DHT22;13718;50.922;5.346;2023-05-16T12:15:00;18.50;65.80
25914;DHT22;13718;50.922;5.346;2023-05-16T12:17:26;18.10;67.10
25914;DHT22;13718;50.922;5.346;2023-05-16T12:19:53;18.00;67.40
25914;DHT22;13718;50.922;5.346;2023-05-16T12:22:21;17.80;66.40
25914;DHT22;13718;50.922;5.346;2023-05-16T12:24:50;17.60;68.60
25914;DHT22;13718;50.922;5.346;2023-05-16T12:27:23;17.80;68.00
25914;DHT22;13718;50.922;5.346;2023-05-16T12:29:49;18.20;67.00
25914;DHT22;13718;50.922;5.346;2023-05-16T12:32:21;18.60;68.00
25914;DHT22;13718;50.922;5.346;2023-05-16T12:34:50;18.70;67.50
25914;DHT22;13718;50.922;5.346;2023-05-16T12:37:16;18.50;68.30
25914;DHT22;13718;50.922;5.346;2023-05-16T12:39:42;18.40;68.30
25914;DHT22;13718;50.922;5.346;2023-05-16T12:42:12;18.30;69.60
25914;DHT22;13718;50.922;5.346;2023-05-16T12:44:38;18.10;68.50
25914;DHT22;13718;50.922;5.346;2023-05-16T12:47:10;18.30;69.50
25914;DHT22;13718;50.922;5.346;2023-05-16T12:49:43;18.50;66.20
25914;DHT22;13718;50.922;5.346;2023-05-16T12:52:17;18.40;63.30
25914;DHT22;13718;50.922;5.346;2023-05-16T12:54:44;18.00;65.20
25914;DHT22;13718;50.922;5.346;2023-05-16T12:57:09;17.90;66.60
25914;DHT22;13718;50.922;5.346;2023-05-16T12:59:35;17.70;69.00
25914;DHT22;13718;50.922;5.346;2023-05-16T13:02:01;17.70;70.20
25914;DHT22;13718;50.922;5.346;2023-05-16T13:04:28;17.80;71.20
25914;DHT22;13718;50.922;5.346;2023-05-16T13:06:53;18.00;68.70
25914;DHT22;13718;50.922;5.346;2023-05-16T13:09:19;18.40;68.70
25914;DHT22;13718;50.922;5.346;2023-05-16T13:11:45;18.50;67.20
25914;DHT22;13718;50.922;5.346;2023-05-16T13:14:10;18.70;66.60
25914;DHT22;13718;50.922;5.346;2023-05-16T13:16:37;18.80;66.90
25914;DHT22;13718;50.922;5.346;2023-05-16T13:19:02;18.90;68.60
25914;DHT22;13718;50.922;5.346;2023-05-16T13:21:29;18.80;69.60
25914;DHT22;13718;50.922;5.346;2023-05-16T13:23:56;18.80;68.50
25914;DHT22;13718;50.922;5.346;2023-05-16T13:26:22;19.00;69.50
25914;DHT22;13718;50.922;5.346;2023-05-16T13:28:47;18.90;67.80
25914;DHT22;13718;50.922;5.346;2023-05-16T13:31:17;18.90;67.20
25914;DHT22;13718;50.922;5.346;2023-05-16T13:33:43;18.90;67.40
25914;DHT22;13718;50.922;5.346;2023-05-16T13:36:09;19.10;68.20
25914;DHT22;13718;50.922;5.346;2023-05-16T13:38:35;18.90;66.90
25914;DHT22;13718;50.922;5.346;2023-05-16T13:41:01;18.80;67.60
25914;DHT22;13718;50.922;5.346;2023-05-16T13:43:26;18.80;69.80
25914;DHT22;13718;50.922;5.346;2023-05-16T13:45:52;18.80;67.30
25914;DHT22;13718;50.922;5.346;2023-05-16T13:48:17;18.60;68.10
25914;DHT22;13718;50.922;5.346;2023-05-16T13:50:44;18.50;68.40
25914;DHT22;13718;50.922;5.346;2023-05-16T13:53:09;18.30;69.10
25914;DHT22;13718;50.922;5.346;2023-05-16T13:55:35;18.30;70.10
25914;DHT22;13718;50.922;5.346;2023-05-16T13:58:01;18.10;69.60
25914;DHT22;13718;50.922;5.346;2023-05-16T14:00:28;18.00;70.60
25914;DHT22;13718;50.922;5.346;2023-05-16T14:02:54;17.70;69.60
25914;DHT22;13718;50.922;5.346;2023-05-16T14:05:19;17.60;70.80
25914;DHT22;13718;50.922;5.346;2023-05-16T14:07:45;17.90;70.60
25914;DHT22;13718;50.922;5.346;2023-05-16T14:10:10;17.70;70.70
25914;DHT22;13718;50.922;5.346;2023-05-16T14:12:36;17.60;70.50
25914;DHT22;13718;50.922;5.346;2023-05-16T14:15:03;17.60;70.90
25914;DHT22;13718;50.922;5.346;2023-05-16T14:17:29;17.60;70.70
25914;DHT22;13718;50.922;5.346;2023-05-16T14:19:55;17.80;70.90
25914;DHT22;13718;50.922;5.346;2023-05-16T14:22:20;17.80;70.80
25914;DHT22;13718;50.922;5.346;2023-05-16T14:24:46;17.60;71.00
25914;DHT22;13718;50.922;5.346;2023-05-16T14:27:11;17.70;70.30
25914;DHT22;13718;50.922;5.346;2023-05-16T14:29:39;17.70;70.50
25914;DHT22;13718;50.922;5.346;2023-05-16T14:32:05;17.90;71.40
25914;DHT22;13718;50.922;5.346;2023-05-16T14:34:30;18.00;69.30
25914;DHT22;13718;50.922;5.346;2023-05-16T14:36:57;18.00;69.30
25914;DHT22;13718;50.922;5.346;2023-05-16T14:39:22;18.10;68.70
25914;DHT22;13718;50.922;5.346;2023-05-16T14:41:48;18.10;69.50
25914;DHT22;13718;50.922;5.346;2023-05-16T14:44:13;18.10;70.30
25914;DHT22;13718;50.922;5.346;2023-05-16T14:46:39;18.40;70.40
25914;DHT22;13718;50.922;5.346;2023-05-16T14:49:05;18.40;69.70
25914;DHT22;13718;50.922;5.346;2023-05-16T14:51:30;18.40;68.40
25914;DHT22;13718;50.922;5.346;2023-05-16T14:53:56;18.30;68.60
25914;DHT22;13718;50.922;5.346;2023-05-16T14:56:22;18.30;68.50
25914;DHT22;13718;50.922;5.346;2023-05-16T14:58:48;18.30;69.60
25914;DHT22;13718;50.922;5.346;2023-05-16T15:01:14;18.40;69.10
25914;DHT22;13718;50.922;5.346;2023-05-16T15:03:40;18.20;68.20
25914;DHT22;13718;50.922;5.346;2023-05-16T15:06:06;18.10;68.60
25914;DHT22;13718;50.922;5.346;2023-05-16T15:08:33;18.20;69.00
25914;DHT22;13718;50.922;5.346;2023-05-16T15:10:59;18.10;68.90
25914;DHT22;13718;50.922;5.346;2023-05-16T15:13:25;18.30;69.60
25914;DHT22;13718;50.922;5.346;2023-05-16T15:15:51;18.30;70.30
25914;DHT22;13718;50.922;5.346;2023-05-16T15:18:16;18.40;70.60
25914;DHT22;13718;50.922;5.346;2023-05-16T15:20:42;18.20;69.90
25914;DHT22;13718;50.922;5.346;2023-05-16T15:23:07;18.00;69.40
25914;DHT22;13718;50.922;5.346;2023-05-16T15:25:33;18.00;70.00
25914;DHT22;13718;50.922;5.346;2023-05-16T15:27:59;17.90;69.10
25914;DHT22;13718;50.922;5.346;2023-05-16T15:30:25;17.90;69.80
25914;DHT22;13718;50.922;5.346;2023-05-16T15:32:51;17.70;69.60
25914;DHT22;13718;50.922;5.346;2023-05-16T15:35:16;17.50;69.70
25914;DHT22;13718;50.922;5.346;2023-05-16T15:37:42;17.40;70.30
25914;DHT22;13718;50.922;5.346;2023-05-16T15:40:08;17.50;71.00
25914;DHT22;13718;50.922;5.346;2023-05-16T15:42:35;17.60;70.20
25914;DHT22;13718;50.922;5.346;2023-05-16T15:45:01;17.40;70.90
25914;DHT22;13718;50.922;5.346;2023-05-16T15:47:26;17.40;71.50
25914;DHT22;13718;50.922;5.346;2023-05-16T15:49:52;17.50;71.60
25914;DHT22;13718;50.922;5.346;2023-05-16T15:52:17;17.50;71.10
25914;DHT22;13718;50.922;5.346;2023-05-16T15:54:43;17.40;71.10
25914;DHT22;13718;50.922;5.346;2023-05-16T15:57:09;17.30;71.90